KHFY

Indy South Greenwood Airport

Indianapolis, Indiana, USA
METAR KHFY 141755Z AUTO 00000KT 5SM SCT030 BKN035 OVC050 09/08 A3012 RMK AO2 6//// T00860078
Observed Flight Rules
Dec-14 @ 17:55 UTC (19 minutes ago) Marginal Visual Flight Rules
Visibility Clouds
5 miles
  • Scattered at 3,000' AGL
  • Broken at 3,500' AGL
  • Overcast at 5,000' AGL
Temperatures Readings
Current 9°C / 48°F
Dewpoint 8°C / 46°F
Humidity 94%
Altimeter 30.12" Hg
Pressure 1020 hPa
Elevation 251
METAR KHFY 141755Z AUTO 00000KT 5SM SCT030 BKN035 OVC050 09/08 A3012 RMK AO2 6//// T00860078
Observed Flight Rules
Dec-14 @ 17:55 UTC
(19 minutes ago)
MVFR
Clouds
  • Scattered at 3,000' AGL
  • Broken at 3,500' AGL
  • Overcast at 5,000' AGL
Temperature Dewpoint
9°C / 48°F 8°C / 46°F
Humidity Altimeter Pressure
94% 30.12" Hg 1020 hPa